Time;durP1;ratioP1;P1;durP2;ratioP2;P2;SDS_P1;SDS_P2;PMS_P1;PMS_P2;Temp;Humidity;BMP_temperature;BMP_pressure;BME280_temperature;BME280_humidity;BME280_pressure;Samples;Min_cycle;Max_cycle;Signal;HPM_P1;HPM_P2
2023/01/15 00:01:35;;;;;;;20.80;8.13;;;28.00;91.50;;;;;;5028405;28;20106;-53
2023/01/15 00:04:05;;;;;;;16.88;7.28;;;27.90;91.70;;;;;;5009894;28;20033;-51
2023/01/15 00:06:39;;;;;;;16.98;7.50;;;27.90;91.70;;;;;;5008262;28;20020;-53
2023/01/15 00:09:08;;;;;;;14.98;7.30;;;27.80;91.60;;;;;;5009080;28;20050;-55
2023/01/15 00:11:36;;;;;;;13.68;8.38;;;27.80;91.60;;;;;;5007781;28;20277;-59
2023/01/15 00:14:06;;;;;;;13.15;7.40;;;27.80;91.60;;;;;;4990738;28;20026;-51
2023/01/15 00:16:41;;;;;;;12.65;7.35;;;27.80;91.60;;;;;;4991070;28;20218;-55
2023/01/15 00:19:22;;;;;;;11.93;7.35;;;27.70;91.60;;;;;;5020664;28;20041;-53
2023/01/15 00:21:49;;;;;;;10.60;6.75;;;27.70;91.60;;;;;;5027624;28;20030;-58
2023/01/15 00:29:47;;;;;;;17.27;10.55;;;27.90;91.50;;;;;;5026814;28;20093;-54
2023/01/15 00:32:14;;;;;;;15.85;11.55;;;28.00;91.40;;;;;;5026306;28;20026;-60
2023/01/15 00:34:43;;;;;;;18.30;12.68;;;28.00;91.40;;;;;;5027014;28;20041;-61
2023/01/15 00:37:25;;;;;;;19.65;12.50;;;28.00;91.40;;;;;;5026400;28;20069;-62
2023/01/15 00:39:54;;;;;;;18.83;11.45;;;28.00;91.30;;;;;;5026361;28;20077;-52
2023/01/15 00:42:21;;;;;;;22.35;10.73;;;28.10;91.30;;;;;;5026418;28;20030;-53
2023/01/15 00:44:47;;;;;;;14.00;9.70;;;28.10;91.20;;;;;;5026335;28;20032;-53
2023/01/15 00:47:14;;;;;;;22.33;10.93;;;28.10;91.20;;;;;;5026275;28;20068;-59
2023/01/15 00:49:42;;;;;;;22.02;11.82;;;28.10;91.20;;;;;;5009062;28;20084;-58
2023/01/15 00:52:10;;;;;;;26.52;11.95;;;28.10;91.20;;;;;;5025942;28;20034;-54
2023/01/15 00:55:00;;;;;;;24.98;12.15;;;28.10;91.30;;;;;;5018201;28;20076;-55
2023/01/15 00:57:28;;;;;;;19.60;10.90;;;28.10;91.30;;;;;;5009575;28;20314;-54
2023/01/15 00:59:54;;;;;;;22.10;12.10;;;28.10;91.40;;;;;;5013945;28;20190;-55
2023/01/15 01:02:24;;;;;;;25.15;11.55;;;28.10;91.70;;;;;;5008936;28;20085;-54
2023/01/15 01:04:51;;;;;;;27.42;11.63;;;28.10;91.60;;;;;;5012861;28;20036;-57
2023/01/15 01:07:17;;;;;;;25.98;11.43;;;28.10;91.80;;;;;;5008081;28;20037;-53
2023/01/15 01:09:44;;;;;;;20.85;10.23;;;28.00;91.60;;;;;;5024663;28;20045;-52
2023/01/15 01:12:11;;;;;;;19.38;11.10;;;28.10;91.60;;;;;;5019744;28;20021;-55
2023/01/15 01:14:38;;;;;;;21.27;11.48;;;28.00;91.60;;;;;;5015824;28;20053;-56
2023/01/15 01:17:05;;;;;;;32.88;13.82;;;28.00;91.60;;;;;;5010368;28;20030;-55
2023/01/15 01:19:32;;;;;;;24.08;13.07;;;28.00;91.40;;;;;;5024803;28;20030;-53
2023/01/15 01:21:58;;;;;;;23.27;10.13;;;28.00;91.30;;;;;;5025517;28;20029;-57
2023/01/15 01:24:25;;;;;;;21.02;11.23;;;28.00;91.20;;;;;;5024977;28;20217;-54
2023/01/15 01:26:51;;;;;;;21.55;9.48;;;28.00;91.30;;;;;;5024579;28;20018;-59
2023/01/15 01:29:21;;;;;;;23.50;8.82;;;28.00;91.30;;;;;;5025049;28;20421;-59
2023/01/15 01:31:51;;;;;;;23.30;9.95;;;28.00;91.20;;;;;;5025347;28;20026;-58
2023/01/15 01:34:18;;;;;;;18.38;8.50;;;28.00;91.20;;;;;;5024864;28;20096;-56
2023/01/15 01:36:45;;;;;;;16.77;9.32;;;28.00;91.20;;;;;;5020847;28;20021;-54
2023/01/15 01:39:18;;;;;;;18.33;9.05;;;28.00;91.10;;;;;;5024193;28;20018;-56
2023/01/15 01:41:45;;;;;;;18.20;9.15;;;27.90;91.10;;;;;;5024876;28;20101;-55
2023/01/15 01:44:33;;;;;;;19.58;9.68;;;27.90;91.00;;;;;;5025506;28;20032;-55
2023/01/15 01:47:04;;;;;;;19.48;10.13;;;27.90;91.10;;;;;;5025335;28;20037;-54
2023/01/15 01:49:31;;;;;;;26.00;10.82;;;27.90;91.20;;;;;;5025414;28;20186;-57
2023/01/15 01:52:03;;;;;;;14.07;10.02;;;27.90;91.20;;;;;;5025164;28;20033;-56
2023/01/15 01:54:33;;;;;;;23.92;10.32;;;27.80;91.30;;;;;;5025329;28;20046;-57
2023/01/15 01:57:00;;;;;;;17.05;10.10;;;27.80;91.30;;;;;;5025311;28;20093;-58
2023/01/15 01:59:27;;;;;;;15.80;9.90;;;27.80;91.30;;;;;;5025364;28;20101;-53
2023/01/15 02:01:53;;;;;;;16.90;10.60;;;27.80;91.30;;;;;;5023128;28;20064;-55
2023/01/15 02:04:25;;;;;;;15.35;10.80;;;27.80;91.30;;;;;;5023227;28;20242;-57
2023/01/15 02:06:53;;;;;;;15.88;10.23;;;27.80;91.30;;;;;;5022820;28;20026;-54
2023/01/15 02:09:20;;;;;;;15.52;9.25;;;27.70;91.30;;;;;;5023212;28;20050;-54
2023/01/15 02:11:49;;;;;;;16.80;9.93;;;27.80;91.30;;;;;;5023289;28;20026;-56
2023/01/15 02:14:29;;;;;;;14.77;9.60;;;27.70;91.30;;;;;;5023170;28;20101;-56
2023/01/15 02:17:30;;;;;;;13.13;9.50;;;27.70;91.30;;;;;;5024546;28;20372;-54
2023/01/15 02:20:02;;;;;;;15.80;9.32;;;27.60;91.20;;;;;;5025145;28;20033;-57
2023/01/15 02:22:29;;;;;;;14.18;8.85;;;27.60;91.10;;;;;;5023747;28;20102;-52
2023/01/15 02:25:14;;;;;;;15.05;8.98;;;27.60;91.10;;;;;;5025047;28;20056;-55
2023/01/15 02:27:57;;;;;;;16.02;9.68;;;27.60;91.10;;;;;;5024131;28;20041;-60
2023/01/15 02:30:39;;;;;;;19.10;10.07;;;27.60;91.20;;;;;;5025177;28;20036;-56
2023/01/15 02:33:20;;;;;;;13.23;9.20;;;27.50;91.20;;;;;;5024314;28;20345;-54
2023/01/15 02:36:00;;;;;;;15.00;9.17;;;27.50;91.20;;;;;;5024492;28;20034;-53
2023/01/15 02:38:31;;;;;;;15.30;9.90;;;27.50;91.20;;;;;;5024161;28;20291;-53
2023/01/15 02:41:02;;;;;;;13.27;8.73;;;27.50;91.30;;;;;;5024377;28;20029;-54
2023/01/15 02:43:37;;;;;;;17.23;9.43;;;27.50;91.30;;;;;;5024360;28;20325;-55
2023/01/15 02:46:05;;;;;;;12.85;8.55;;;27.40;91.30;;;;;;5024275;28;20026;-55
2023/01/15 02:48:35;;;;;;;17.40;9.25;;;27.40;91.40;;;;;;5024682;28;20076;-56
2023/01/15 02:51:09;;;;;;;11.93;8.68;;;27.40;91.40;;;;;;5024329;28;20029;-59
2023/01/15 02:53:38;;;;;;;16.42;8.63;;;27.40;91.40;;;;;;5023422;28;20034;-56
2023/01/15 02:56:12;;;;;;;17.27;8.77;;;27.40;91.40;;;;;;5024608;28;20034;-57
2023/01/15 02:58:41;;;;;;;12.23;8.10;;;27.30;91.40;;;;;;5024702;28;20064;-54
2023/01/15 03:01:18;;;;;;;13.77;8.02;;;27.30;91.30;;;;;;5024798;28;20053;-55
2023/01/15 03:04:06;;;;;;;16.23;8.00;;;27.30;91.30;;;;;;5024230;28;20033;-55
2023/01/15 03:06:40;;;;;;;12.27;7.25;;;27.30;91.30;;;;;;5024230;28;20065;-54
2023/01/15 03:09:08;;;;;;;15.90;9.75;;;27.30;91.30;;;;;;5023866;28;20057;-55
2023/01/15 03:11:39;;;;;;;13.05;8.52;;;27.30;91.20;;;;;;5024400;28;20037;-55
2023/01/15 03:14:08;;;;;;;14.20;7.82;;;27.30;91.10;;;;;;5024037;28;20045;-56
2023/01/15 03:16:44;;;;;;;14.77;8.65;;;27.30;91.00;;;;;;5024237;28;20034;-59
2023/01/15 03:19:38;;;;;;;14.73;8.05;;;27.30;91.00;;;;;;5002735;28;20045;-65
2023/01/15 03:22:23;;;;;;;11.80;7.82;;;27.30;91.20;;;;;;5002838;28;20354;-55
2023/01/15 03:25:04;;;;;;;15.35;7.50;;;27.30;90.90;;;;;;5002505;28;20038;-54
2023/01/15 03:27:31;;;;;;;14.32;7.40;;;27.30;90.90;;;;;;5003140;28;20106;-59
2023/01/15 03:30:08;;;;;;;10.70;6.68;;;27.30;90.80;;;;;;5002843;28;20084;-53
2023/01/15 03:32:40;;;;;;;13.20;7.00;;;27.30;90.70;;;;;;5002767;28;20045;-57
2023/01/15 03:35:28;;;;;;;;;;;27.30;90.70;;;;;;5002680;28;20018;-57
2023/01/15 03:37:56;;;;;;;10.05;6.43;;;27.40;90.80;;;;;;5002013;28;19906;-54
2023/01/15 03:40:23;;;;;;;14.02;7.00;;;27.30;90.80;;;;;;5002249;28;20034;-56
2023/01/15 03:43:39;;;;;;;12.63;6.90;;;27.30;90.90;;;;;;5002278;28;20101;-55
2023/01/15 03:49:07;;;;;;;10.43;6.57;;;27.30;90.80;;;;;;5021975;28;20046;-54
2023/01/15 03:51:59;;;;;;;13.25;7.07;;;27.30;90.80;;;;;;5006008;28;20029;-63
2023/01/15 03:57:47;;;;;;;10.40;7.20;;;27.30;90.90;;;;;;5023781;28;20033;-57
2023/01/15 04:00:42;;;;;;;12.73;6.22;;;27.30;90.90;;;;;;5023343;28;20060;-58
2023/01/15 04:03:23;;;;;;;;;;;;;;;;;;;;;
2023/01/15 04:05:53;;;;;;;13.50;6.60;;;27.30;90.80;;;;;;5026983;28;20053;-55
2023/01/15 04:08:20;;;;;;;17.23;7.18;;;27.30;90.80;;;;;;5026978;28;20025;-56
2023/01/15 04:10:58;;;;;;;12.75;6.55;;;27.30;90.80;;;;;;5027007;28;20041;-56
2023/01/15 04:13:26;;;;;;;16.40;7.25;;;27.30;90.80;;;;;;5026842;28;20037;-54
2023/01/15 04:16:07;;;;;;;13.30;7.13;;;27.30;90.70;;;;;;5026918;28;20032;-56
2023/01/15 04:18:37;;;;;;;17.13;8.53;;;27.30;90.70;;;;;;5027249;28;20218;-57
2023/01/15 04:21:05;;;;;;;18.25;8.40;;;27.30;90.70;;;;;;5027014;28;20269;-54
2023/01/15 04:23:31;;;;;;;13.30;7.78;;;27.30;90.70;;;;;;5026676;28;20030;-59
2023/01/15 04:25:58;;;;;;;15.25;7.45;;;27.30;90.60;;;;;;5026746;28;20068;-55
2023/01/15 04:28:24;;;;;;;12.00;7.00;;;27.30;90.60;;;;;;5026976;28;20148;-55
2023/01/15 04:30:51;;;;;;;15.25;7.25;;;27.30;90.60;;;;;;5026589;28;20025;-50
2023/01/15 04:33:18;;;;;;;11.98;7.60;;;27.30;90.70;;;;;;5026878;28;20033;-55
2023/01/15 04:35:46;;;;;;;15.65;9.02;;;27.30;90.70;;;;;;5026420;28;20037;-53
2023/01/15 04:38:12;;;;;;;17.70;12.05;;;27.30;90.70;;;;;;5026431;28;20104;-49
2023/01/15 04:46:10;;;;;;;20.67;16.38;;;27.30;90.70;;;;;;5026399;28;20133;-55
2023/01/15 04:48:39;;;;;;;17.58;15.02;;;27.30;90.70;;;;;;5026459;28;20046;-56
2023/01/15 04:51:06;;;;;;;18.88;11.65;;;27.30;90.70;;;;;;5026241;28;20363;-53
2023/01/15 04:53:35;;;;;;;16.90;10.57;;;27.30;90.70;;;;;;5026391;28;20030;-58
2023/01/15 04:56:05;;;;;;;13.32;8.88;;;27.30;90.80;;;;;;5026204;28;20064;-53
2023/01/15 04:58:33;;;;;;;13.70;8.75;;;27.30;90.80;;;;;;5026465;28;20034;-53
2023/01/15 05:00:59;;;;;;;11.48;8.38;;;27.30;90.90;;;;;;5026489;28;20064;-55
2023/01/15 05:03:30;;;;;;;13.13;7.72;;;27.20;90.80;;;;;;5026271;28;20076;-54
2023/01/15 05:06:01;;;;;;;14.82;7.70;;;27.30;90.90;;;;;;5026433;28;20101;-55
2023/01/15 05:08:28;;;;;;;13.68;7.22;;;27.30;90.90;;;;;;5026234;28;20138;-54
2023/01/15 05:10:55;;;;;;;12.43;6.90;;;27.20;90.90;;;;;;5025877;28;20034;-52
2023/01/15 05:13:22;;;;;;;12.10;6.82;;;27.20;90.90;;;;;;5025876;28;20270;-55
2023/01/15 05:15:49;;;;;;;14.68;7.20;;;27.20;91.00;;;;;;5025071;28;20060;-54
2023/01/15 05:18:15;;;;;;;12.35;7.15;;;27.20;91.10;;;;;;5025652;28;20034;-51
2023/01/15 05:20:42;;;;;;;13.38;7.63;;;27.20;91.10;;;;;;5025967;28;20371;-55
2023/01/15 05:23:08;;;;;;;12.05;7.63;;;27.20;91.10;;;;;;5025931;28;20237;-57
2023/01/15 05:25:38;;;;;;;16.90;8.20;;;27.20;91.10;;;;;;5026216;28;20040;-57
2023/01/15 05:28:04;;;;;;;15.38;8.60;;;27.20;91.10;;;;;;5026120;28;20021;-57
2023/01/15 05:30:31;;;;;;;15.57;8.80;;;27.20;91.10;;;;;;5026188;28;20033;-62
2023/01/15 05:32:59;;;;;;;13.38;8.32;;;27.20;91.00;;;;;;5026162;28;20018;-54
2023/01/15 05:35:25;;;;;;;17.33;8.75;;;27.20;91.10;;;;;;5026563;28;20041;-56
2023/01/15 05:37:52;;;;;;;14.18;7.47;;;27.20;91.10;;;;;;5026139;28;20022;-55
2023/01/15 05:40:19;;;;;;;13.63;7.70;;;27.20;91.10;;;;;;5026306;28;20029;-55
2023/01/15 05:42:45;;;;;;;13.77;7.97;;;27.10;91.10;;;;;;5025818;28;20045;-57
2023/01/15 05:45:12;;;;;;;16.90;8.05;;;27.20;91.20;;;;;;5026459;28;20018;-55
2023/01/15 05:47:38;;;;;;;10.73;7.80;;;27.20;91.20;;;;;;5025706;28;20095;-57
2023/01/15 05:50:05;;;;;;;13.80;8.38;;;27.20;91.20;;;;;;5026250;28;20032;-58
2023/01/15 05:52:32;;;;;;;14.35;8.80;;;27.20;91.10;;;;;;5026058;28;20049;-54
2023/01/15 05:54:58;;;;;;;14.35;9.30;;;27.20;91.10;;;;;;5025770;28;20038;-53
2023/01/15 05:57:25;;;;;;;16.27;9.80;;;27.20;91.20;;;;;;5025652;28;20063;-53
2023/01/15 05:59:53;;;;;;;16.85;9.80;;;27.20;91.20;;;;;;5025618;28;20076;-56
2023/01/15 06:02:19;;;;;;;17.92;9.60;;;27.10;91.20;;;;;;5025403;28;20018;-56
2023/01/15 06:04:46;;;;;;;16.30;8.60;;;27.10;91.20;;;;;;5025743;28;20069;-57
2023/01/15 06:07:12;;;;;;;14.57;8.05;;;27.10;91.20;;;;;;5025395;28;20034;-54
2023/01/15 06:09:39;;;;;;;16.13;7.97;;;27.10;91.20;;;;;;5025752;28;20033;-55
2023/01/15 06:12:06;;;;;;;14.52;8.23;;;27.10;91.20;;;;;;5025139;28;20049;-54
2023/01/15 06:14:32;;;;;;;15.55;8.13;;;27.10;91.30;;;;;;5025442;28;20028;-55
2023/01/15 06:16:59;;;;;;;17.55;9.73;;;27.10;91.30;;;;;;5025132;28;20125;-54
2023/01/15 06:19:25;;;;;;;18.65;10.98;;;27.10;91.30;;;;;;5025238;28;20410;-55
2023/01/15 06:21:52;;;;;;;21.33;11.77;;;27.10;91.30;;;;;;5025112;28;20292;-52
2023/01/15 06:24:19;;;;;;;17.83;10.20;;;27.10;91.30;;;;;;5025449;28;20225;-55
2023/01/15 06:26:46;;;;;;;19.13;9.80;;;27.10;91.40;;;;;;5007316;28;20277;-55
2023/01/15 06:29:16;;;;;;;18.10;9.18;;;27.10;91.40;;;;;;5007672;28;20026;-53
2023/01/15 06:31:43;;;;;;;16.33;8.43;;;27.10;91.40;;;;;;5024649;28;20096;-56
2023/01/15 06:34:09;;;;;;;13.63;8.10;;;27.10;91.40;;;;;;5025338;28;20195;-55
2023/01/15 06:36:36;;;;;;;15.00;8.18;;;27.10;91.50;;;;;;5024457;28;20041;-53
2023/01/15 06:39:02;;;;;;;12.75;7.85;;;27.10;91.50;;;;;;5025047;28;20022;-55
2023/01/15 06:47:21;;;;;;;10.70;7.22;;;27.10;91.50;;;;;;5024751;28;20053;-53
2023/01/15 06:49:57;;;;;;;13.02;7.43;;;27.10;91.50;;;;;;5025312;28;20037;-57
2023/01/15 06:52:25;;;;;;;13.90;7.13;;;27.10;91.50;;;;;;5024766;28;20325;-58
2023/01/15 06:54:52;;;;;;;13.50;7.70;;;27.10;91.60;;;;;;5024907;28;20069;-55
2023/01/15 06:57:19;;;;;;;11.65;6.90;;;27.10;91.60;;;;;;5024528;28;20026;-55
2023/01/15 06:59:47;;;;;;;12.75;7.45;;;27.10;91.60;;;;;;5024531;28;20041;-55
2023/01/15 07:02:14;;;;;;;11.55;7.10;;;27.10;91.60;;;;;;5024536;28;20056;-58
2023/01/15 07:04:40;;;;;;;12.77;6.82;;;27.10;91.60;;;;;;5025107;28;20021;-55
2023/01/15 07:07:07;;;;;;;10.27;7.25;;;27.10;91.60;;;;;;5024566;28;20237;-56
2023/01/15 07:09:34;;;;;;;12.23;6.90;;;27.10;91.70;;;;;;5025279;28;20026;-65
2023/01/15 07:12:00;;;;;;;14.02;7.03;;;27.10;91.70;;;;;;5024698;28;20030;-55
2023/01/15 07:14:27;;;;;;;14.52;6.75;;;27.10;91.80;;;;;;5024873;28;20262;-57
2023/01/15 07:16:54;;;;;;;12.93;7.20;;;27.10;91.80;;;;;;5024632;28;20041;-56
2023/01/15 07:19:21;;;;;;;16.38;7.53;;;27.00;91.80;;;;;;5024429;28;20092;-57
2023/01/15 07:21:47;;;;;;;11.77;7.05;;;27.10;91.80;;;;;;5006977;28;20040;-60
2023/01/15 07:24:14;;;;;;;14.30;7.15;;;27.00;91.70;;;;;;5024670;28;20041;-53
2023/01/15 07:26:42;;;;;;;14.02;7.55;;;27.00;91.70;;;;;;5024422;28;20025;-53
2023/01/15 07:29:09;;;;;;;14.25;7.00;;;27.00;91.80;;;;;;5024644;28;20038;-56
2023/01/15 07:31:35;;;;;;;10.40;6.75;;;27.00;91.80;;;;;;5024597;28;20013;-55
2023/01/15 07:34:03;;;;;;;12.52;7.38;;;27.00;91.80;;;;;;5024539;28;20041;-54
2023/01/15 07:36:29;;;;;;;12.85;7.13;;;27.00;91.80;;;;;;5024267;28;20042;-54
2023/01/15 07:38:58;;;;;;;15.60;6.80;;;27.00;91.80;;;;;;5025927;28;20254;-61
2023/01/15 07:49:45;;;;;;;10.13;6.85;;;27.00;91.60;;;;;;5028491;28;20029;-54
2023/01/15 07:52:20;;;;;;;13.18;7.38;;;27.00;91.70;;;;;;5027738;28;20034;-53
2023/01/15 07:54:48;;;;;;;11.05;7.15;;;27.00;91.70;;;;;;5028025;28;20100;-55
2023/01/15 07:57:19;;;;;;;10.30;6.85;;;27.00;91.70;;;;;;5027834;28;20026;-59
2023/01/15 07:59:46;;;;;;;12.00;6.88;;;27.00;91.70;;;;;;5028073;28;20029;-53
2023/01/15 08:02:12;;;;;;;13.82;6.72;;;26.90;91.60;;;;;;5027767;28;20029;-54
2023/01/15 08:04:39;;;;;;;13.68;7.40;;;26.90;91.60;;;;;;5027669;28;20042;-54
2023/01/15 08:07:06;;;;;;;11.30;7.00;;;26.90;91.70;;;;;;5027542;28;20044;-56
2023/01/15 08:09:34;;;;;;;10.90;7.10;;;26.90;91.70;;;;;;5027814;28;20048;-54
2023/01/15 08:17:37;;;;;;;12.60;6.70;;;26.90;91.80;;;;;;5027027;28;20041;-61
2023/01/15 08:20:07;;;;;;;12.02;6.63;;;26.90;92.10;;;;;;5027428;28;20317;-53
2023/01/15 08:22:34;;;;;;;12.32;6.63;;;26.90;91.90;;;;;;5027166;28;20068;-54
2023/01/15 08:25:01;;;;;;;11.98;6.95;;;26.80;91.90;;;;;;5027822;28;20099;-54
2023/01/15 08:27:28;;;;;;;16.02;7.20;;;26.80;92.10;;;;;;5027455;28;20298;-55
2023/01/15 08:29:55;;;;;;;10.70;7.20;;;26.80;92.10;;;;;;5027606;28;20088;-55
2023/01/15 08:32:23;;;;;;;10.40;7.00;;;26.80;92.10;;;;;;5027025;28;20072;-57
2023/01/15 08:34:49;;;;;;;13.68;7.88;;;26.80;92.10;;;;;;5027242;28;20364;-54
2023/01/15 08:37:16;;;;;;;12.02;7.18;;;26.80;92.10;;;;;;5026714;28;20025;-54
2023/01/15 08:39:43;;;;;;;15.80;7.25;;;26.80;92.10;;;;;;5027351;28;20040;-55
2023/01/15 08:42:09;;;;;;;11.55;6.80;;;26.80;92.00;;;;;;5026814;28;20169;-54
2023/01/15 08:44:36;;;;;;;12.40;7.15;;;26.70;92.00;;;;;;5027257;28;20089;-53
2023/01/15 08:47:03;;;;;;;13.50;6.85;;;26.80;92.00;;;;;;5026438;28;20038;-60
2023/01/15 08:49:29;;;;;;;12.43;6.43;;;26.70;92.00;;;;;;5026401;28;20125;-54
2023/01/15 08:51:56;;;;;;;11.27;6.55;;;26.70;92.00;;;;;;5025923;28;20026;-53
2023/01/15 08:54:25;;;;;;;12.35;6.80;;;26.70;92.00;;;;;;5026299;28;20034;-54
2023/01/15 08:56:52;;;;;;;12.50;7.13;;;26.70;92.00;;;;;;5026182;28;20072;-54
2023/01/15 08:59:19;;;;;;;14.60;7.18;;;26.70;92.00;;;;;;5026750;28;20042;-54
2023/01/15 09:01:45;;;;;;;11.52;7.25;;;26.70;92.10;;;;;;5026544;28;20202;-53
2023/01/15 09:04:16;;;;;;;10.02;6.60;;;26.70;92.10;;;;;;5026759;28;20108;-54
2023/01/15 09:06:44;;;;;;;10.88;6.55;;;26.70;92.10;;;;;;5026132;28;20068;-59
2023/01/15 09:09:11;;;;;;;12.63;6.88;;;26.70;92.10;;;;;;5026190;28;20025;-54
2023/01/15 09:11:41;;;;;;;12.68;6.63;;;26.70;92.00;;;;;;5025882;28;20026;-54
2023/01/15 09:14:09;;;;;;;13.02;6.90;;;26.70;92.00;;;;;;5025960;28;20030;-54
2023/01/15 09:16:36;;;;;;;13.30;7.15;;;26.70;92.00;;;;;;5025898;28;20044;-54
2023/01/15 09:19:04;;;;;;;8.95;6.38;;;26.70;91.90;;;;;;5026435;28;20037;-53
2023/01/15 09:21:31;;;;;;;11.38;7.15;;;26.70;91.90;;;;;;5026532;28;20179;-59
2023/01/15 09:23:58;;;;;;;13.57;6.50;;;26.70;91.90;;;;;;5022192;28;20070;-53
2023/01/15 09:26:31;;;;;;;11.50;6.95;;;26.80;92.00;;;;;;5018292;28;20086;-54
2023/01/15 09:28:58;;;;;;;15.52;7.40;;;26.80;91.90;;;;;;5005973;28;20030;-55
2023/01/15 09:31:26;;;;;;;15.93;6.97;;;26.80;91.90;;;;;;5005820;28;20018;-53
2023/01/15 09:33:52;;;;;;;11.82;6.68;;;26.80;91.80;;;;;;5006104;28;20038;-57
2023/01/15 09:36:26;;;;;;;12.90;6.78;;;26.80;91.80;;;;;;5005727;28;20030;-54
2023/01/15 09:38:54;;;;;;;9.48;6.03;;;26.90;91.70;;;;;;5006026;28;20057;-60
2023/01/15 09:44:20;;;;;;;15.32;6.90;;;26.90;91.60;;;;;;5019741;28;20399;-58
2023/01/15 09:46:54;;;;;;;13.40;7.00;;;26.90;91.60;;;;;;5017269;28;20218;-53
2023/01/15 09:49:59;;;;;;;10.77;6.60;;;26.90;91.70;;;;;;5015264;28;20270;-53
2023/01/15 09:53:00;;;;;;;12.30;7.03;;;26.90;91.60;;;;;;5021402;28;20221;-53
2023/01/15 09:55:33;;;;;;;11.80;7.25;;;26.90;91.70;;;;;;5024005;28;20294;-58
2023/01/15 09:58:04;;;;;;;14.57;7.28;;;26.90;91.60;;;;;;5023179;28;20380;-54
2023/01/15 10:00:38;;;;;;;9.60;6.65;;;26.90;91.70;;;;;;5023656;28;20033;-56
2023/01/15 10:03:12;;;;;;;12.02;7.05;;;26.90;91.60;;;;;;4997301;28;20269;-56
2023/01/15 10:05:52;;;;;;;11.55;6.90;;;26.90;91.60;;;;;;5022662;28;20215;-54
2023/01/15 10:08:33;;;;;;;13.70;7.43;;;26.90;91.60;;;;;;5021668;28;20381;-57
2023/01/15 10:11:13;;;;;;;9.88;6.70;;;26.90;91.70;;;;;;5022307;28;20021;-54
2023/01/15 10:13:47;;;;;;;10.38;7.32;;;26.90;91.70;;;;;;5012228;28;20049;-58
2023/01/15 10:16:26;;;;;;;13.85;7.32;;;26.90;91.70;;;;;;5020847;28;20030;-57
2023/01/15 10:18:54;;;;;;;11.25;6.75;;;26.90;91.70;;;;;;5011290;28;20091;-53
2023/01/15 10:21:57;;;;;;;12.20;7.35;;;26.90;91.60;;;;;;5018351;28;20317;-55
2023/01/15 10:24:38;;;;;;;11.48;6.90;;;26.90;91.60;;;;;;5020357;28;20033;-54
2023/01/15 10:27:28;;;;;;;13.70;6.88;;;26.90;91.60;;;;;;5024328;28;20032;-55
2023/01/15 10:30:07;;;;;;;13.93;7.10;;;26.80;91.60;;;;;;5024777;28;20170;-53
2023/01/15 10:32:47;;;;;;;13.35;6.65;;;26.80;91.70;;;;;;5024428;28;20057;-56
2023/01/15 10:35:27;;;;;;;13.27;6.90;;;26.90;91.70;;;;;;5024715;28;20206;-53
2023/01/15 10:38:12;;;;;;;9.80;6.63;;;26.80;91.70;;;;;;5022725;28;20044;-62
2023/01/15 10:40:42;;;;;;;10.18;6.65;;;26.80;91.70;;;;;;5015724;28;20399;-61
2023/01/15 10:43:36;;;;;;;13.25;7.13;;;26.80;91.70;;;;;;5024283;28;20032;-57
2023/01/15 10:46:15;;;;;;;10.27;7.20;;;26.80;91.70;;;;;;5024463;28;20026;-60
2023/01/15 10:48:46;;;;;;;11.32;6.97;;;26.80;91.60;;;;;;5023615;28;20034;-55
2023/01/15 10:51:34;;;;;;;10.07;6.63;;;26.80;91.70;;;;;;5023654;28;20034;-53
2023/01/15 10:54:30;;;;;;;11.73;6.90;;;26.80;91.70;;;;;;5023560;28;20037;-53
2023/01/15 10:57:32;;;;;;;12.18;6.80;;;26.80;91.70;;;;;;5023851;28;20093;-55
2023/01/15 11:00:03;;;;;;;11.95;6.88;;;26.80;91.70;;;;;;5022498;28;20033;-56
2023/01/15 11:03:10;;;;;;;10.38;6.93;;;26.80;91.70;;;;;;5020751;28;20022;-56
2023/01/15 11:05:37;;;;;;;13.48;8.18;;;26.80;92.00;;;;;;5020025;28;20069;-60
2023/01/15 11:08:34;;;;;;;13.05;8.93;;;26.80;91.70;;;;;;5023133;28;20080;-56
2023/01/15 11:11:15;;;;;;;22.20;12.13;;;26.80;91.70;;;;;;5012676;28;20033;-54
2023/01/15 11:19:39;;;;;;;25.40;14.65;;;26.80;91.60;;;;;;5026808;28;20041;-54
2023/01/15 11:22:08;;;;;;;26.58;14.93;;;26.80;91.60;;;;;;5026722;28;20030;-53
2023/01/15 11:24:49;;;;;;;32.25;18.10;;;26.80;91.60;;;;;;5027056;28;20040;-54
2023/01/15 11:27:23;;;;;;;31.13;17.45;;;26.80;91.60;;;;;;5026508;28;20222;-52
2023/01/15 11:29:56;;;;;;;27.05;16.50;;;26.90;91.70;;;;;;5026903;28;20030;-56
2023/01/15 11:32:32;;;;;;;25.65;14.90;;;26.80;91.60;;;;;;5026398;28;20068;-53
2023/01/15 11:35:20;;;;;;;22.48;13.18;;;26.80;91.70;;;;;;5027164;28;20053;-55
2023/01/15 11:37:47;;;;;;;21.30;12.27;;;26.90;91.70;;;;;;5025497;28;20048;-54
2023/01/15 11:40:17;;;;;;;21.75;12.70;;;26.80;91.60;;;;;;5026249;28;20053;-58
2023/01/15 11:51:16;;;;;;;23.67;13.20;;;26.90;91.60;;;;;;5020870;28;20036;-55
2023/01/15 11:53:48;;;;;;;23.20;13.30;;;26.90;91.60;;;;;;5027508;28;20022;-58
2023/01/15 11:56:27;;;;;;;22.60;12.90;;;26.90;91.60;;;;;;5027104;28;20029;-62
2023/01/15 11:58:57;;;;;;;21.08;13.18;;;26.90;91.60;;;;;;5025875;28;20084;-59
2023/01/15 12:01:34;;;;;;;21.63;12.77;;;26.90;91.60;;;;;;5026357;28;20333;-55
2023/01/15 12:04:04;;;;;;;19.45;13.18;;;26.90;91.60;;;;;;5023635;28;20034;-54
2023/01/15 12:06:35;;;;;;;22.50;12.60;;;26.90;91.60;;;;;;5022225;28;20053;-57
2023/01/15 12:09:22;;;;;;;19.75;11.43;;;26.90;91.60;;;;;;5022609;28;20045;-55
2023/01/15 12:12:04;;;;;;;21.58;10.93;;;26.90;91.60;;;;;;5026441;28;20026;-53
2023/01/15 12:15:06;;;;;;;20.73;10.48;;;26.90;91.60;;;;;;5012391;28;20022;-54
2023/01/15 12:17:40;;;;;;;15.45;10.00;;;26.90;91.60;;;;;;5004631;28;20050;-55
2023/01/15 12:20:34;;;;;;;14.57;9.82;;;26.90;91.60;;;;;;5025840;28;20025;-56
2023/01/15 12:23:19;;;;;;;16.50;9.23;;;26.90;91.60;;;;;;5027148;28;20065;-53
2023/01/15 12:26:17;;;;;;;13.32;8.50;;;27.00;91.60;;;;;;5007345;28;20026;-54
2023/01/15 12:29:05;;;;;;;12.32;8.55;;;26.90;91.60;;;;;;5014959;28;20097;-58
2023/01/15 12:31:40;;;;;;;13.38;8.40;;;27.00;91.60;;;;;;5007412;28;20027;-55
2023/01/15 12:34:26;;;;;;;12.43;8.20;;;27.00;91.60;;;;;;5007355;28;20368;-54
2023/01/15 12:37:08;;;;;;;11.35;7.20;;;27.00;91.60;;;;;;5018509;28;20030;-64
2023/01/15 12:39:58;;;;;;;13.40;8.20;;;27.00;91.60;;;;;;5011684;28;20277;-56
2023/01/15 12:45:30;;;;;;;12.30;7.68;;;27.00;91.70;;;;;;5007237;28;20050;-54
2023/01/15 12:48:12;;;;;;;14.32;8.40;;;27.00;91.70;;;;;;4988921;28;20270;-56
2023/01/15 12:50:46;;;;;;;12.52;7.85;;;27.00;91.70;;;;;;5006768;28;20039;-54
2023/01/15 12:53:20;;;;;;;9.00;7.40;;;27.10;91.80;;;;;;5006428;28;20035;-57
2023/01/15 12:56:14;;;;;;;11.80;7.68;;;27.10;91.80;;;;;;5006455;28;20041;-56
2023/01/15 12:59:05;;;;;;;10.02;7.25;;;27.10;91.80;;;;;;5006771;28;20037;-59
2023/01/15 13:02:09;;;;;;;10.73;7.68;;;27.10;91.80;;;;;;5006528;28;20042;-59
2023/01/15 13:05:18;;;;;;;11.73;7.63;;;27.10;91.80;;;;;;5006624;28;20027;-59
2023/01/15 13:08:25;;;;;;;11.32;7.20;;;27.10;91.90;;;;;;5006281;28;20026;-67
2023/01/15 13:10:58;;;;;;;12.80;7.95;;;27.10;91.90;;;;;;4998025;28;20060;-69
2023/01/15 13:13:56;;;;;;;9.82;7.53;;;27.10;92.00;;;;;;4988824;28;20030;-67
2023/01/15 13:16:50;;;;;;;12.80;7.40;;;27.10;92.00;;;;;;5006228;28;20097;-65
2023/01/15 13:19:58;;;;;;;10.85;7.25;;;27.20;92.10;;;;;;4988630;28;20085;-62
2023/01/15 13:22:46;;;;;;;12.15;7.65;;;27.20;92.10;;;;;;4927197;28;20058;-61
2023/01/15 13:25:35;;;;;;;11.18;7.85;;;27.20;92.10;;;;;;5005975;28;20034;-64
2023/01/15 13:28:50;;;;;;;10.02;7.28;;;27.20;92.10;;;;;;4991735;28;20266;-55
2023/01/15 13:31:39;;;;;;;11.82;8.00;;;27.20;92.00;;;;;;4987274;28;20029;-55
2023/01/15 13:34:40;;;;;;;9.77;7.22;;;27.20;91.90;;;;;;5009230;28;20034;-55
2023/01/15 13:37:37;;;;;;;13.23;7.47;;;27.20;91.90;;;;;;4993947;28;20104;-53
2023/01/15 13:40:33;;;;;;;11.90;7.72;;;27.20;91.90;;;;;;5023433;28;20026;-59
2023/01/15 13:43:05;;;;;;;12.45;7.63;;;27.20;91.90;;;;;;5024046;28;20030;-61
2023/01/15 13:49:04;;;;;;;11.95;7.43;;;27.30;91.90;;;;;;4983786;28;20061;-58
2023/01/15 13:51:42;;;;;;;11.00;7.70;;;27.30;92.00;;;;;;4984991;28;20061;-53
2023/01/15 13:54:18;;;;;;;11.60;7.50;;;27.30;91.90;;;;;;4985623;28;20094;-56
2023/01/15 13:56:48;;;;;;;13.75;7.63;;;27.30;91.90;;;;;;4985863;28;20042;-55
2023/01/15 13:59:42;;;;;;;11.23;7.90;;;27.30;91.90;;;;;;4985723;28;20066;-54
2023/01/15 14:02:26;;;;;;;11.02;7.10;;;27.30;91.90;;;;;;4985243;28;20081;-56
2023/01/15 14:04:53;;;;;;;11.40;7.72;;;27.30;91.80;;;;;;4985800;28;20030;-54
2023/01/15 14:07:32;;;;;;;12.52;7.07;;;27.30;91.80;;;;;;4984601;28;20038;-55
2023/01/15 14:10:17;;;;;;;12.48;7.97;;;27.40;91.70;;;;;;4985426;28;20018;-58